createdAt,value
2018-06-29T00:02:14.793Z,2.30
2018-06-29T00:04:44.009Z,2.33
2018-06-29T00:07:12.770Z,2.00
2018-06-29T00:09:41.418Z,2.40
2018-06-29T00:12:10.352Z,2.33
2018-06-29T00:14:39.020Z,3.30
2018-06-29T00:17:08.010Z,2.30
2018-06-29T00:19:36.831Z,2.40
2018-06-29T00:22:05.593Z,2.50
2018-06-29T00:24:34.670Z,3.77
2018-06-29T00:27:03.737Z,2.70
2018-06-29T00:29:32.889Z,2.67
2018-06-29T00:32:02.140Z,2.57
2018-06-29T00:34:31.097Z,3.27
2018-06-29T00:36:59.716Z,4.17
2018-06-29T00:39:28.547Z,3.03
2018-06-29T00:41:57.103Z,3.87
2018-06-29T00:44:25.645Z,3.20
2018-06-29T00:46:54.384Z,3.00
2018-06-29T00:49:23.313Z,2.90
2018-06-29T00:51:52.043Z,3.30
2018-06-29T00:54:20.788Z,3.33
2018-06-29T00:56:49.607Z,3.00
2018-06-29T00:59:18.343Z,3.40
2018-06-29T01:01:47.594Z,3.43
2018-06-29T01:04:16.529Z,2.50
2018-06-29T01:06:45.229Z,4.57
2018-06-29T01:09:14.007Z,6.03
2018-06-29T01:11:42.947Z,3.10
2018-06-29T01:14:11.626Z,3.50
2018-06-29T01:16:40.651Z,3.00
2018-06-29T01:19:09.350Z,3.70
2018-06-29T01:21:38.272Z,3.20
2018-06-29T01:24:06.790Z,3.93
2018-06-29T01:26:35.709Z,3.10
2018-06-29T01:29:04.272Z,3.03
2018-06-29T01:31:33.296Z,4.57
2018-06-29T01:34:02.253Z,3.73
2018-06-29T01:36:31.037Z,3.43
2018-06-29T01:38:59.734Z,3.63
2018-06-29T01:41:28.469Z,2.90
2018-06-29T01:43:57.184Z,4.17
2018-06-29T01:46:25.728Z,3.10
2018-06-29T01:48:54.817Z,3.00
2018-06-29T01:51:23.444Z,3.23
2018-06-29T01:53:52.816Z,3.50
2018-06-29T01:56:22.094Z,3.97
2018-06-29T01:58:50.835Z,3.60
2018-06-29T02:01:19.100Z,3.33
2018-06-29T02:03:48.166Z,4.03
2018-06-29T02:06:16.828Z,3.63
2018-06-29T02:08:45.944Z,5.07
2018-06-29T02:11:14.769Z,4.10
2018-06-29T02:13:43.768Z,4.37
2018-06-29T02:16:12.929Z,3.40
2018-06-29T02:18:41.597Z,4.30
2018-06-29T02:21:10.553Z,3.93
2018-06-29T02:23:39.186Z,3.87
2018-06-29T02:26:07.800Z,4.33
2018-06-29T02:28:36.604Z,4.33
2018-06-29T02:31:05.651Z,5.20
2018-06-29T02:33:34.410Z,4.87
2018-06-29T02:36:03.145Z,4.17
2018-06-29T02:38:31.781Z,5.00
2018-06-29T02:41:00.537Z,4.13
2018-06-29T02:43:29.806Z,6.73
2018-06-29T02:45:58.451Z,4.67
2018-06-29T02:48:27.478Z,4.40
2018-06-29T02:50:56.511Z,4.07
2018-06-29T02:53:25.241Z,5.77
2018-06-29T02:55:54.196Z,4.43
2018-06-29T02:58:22.824Z,4.90
2018-06-29T03:00:51.561Z,5.10
2018-06-29T03:03:20.236Z,5.30
2018-06-29T03:05:49.326Z,4.73
2018-06-29T03:08:18.057Z,3.93
2018-06-29T03:10:46.809Z,4.40
2018-06-29T03:13:15.697Z,4.50
2018-06-29T03:15:44.409Z,4.60
2018-06-29T03:18:13.217Z,4.40
2018-06-29T03:20:53.729Z,4.53
2018-06-29T03:23:23.003Z,5.13
2018-06-29T03:25:52.085Z,4.60
2018-06-29T03:28:21.114Z,4.37
2018-06-29T03:30:49.905Z,3.97
2018-06-29T03:33:18.446Z,5.60
2018-06-29T03:35:47.402Z,4.27
2018-06-29T03:38:16.169Z,5.43
2018-06-29T03:40:44.940Z,4.43
2018-06-29T03:43:14.247Z,4.63
2018-06-29T03:45:42.948Z,4.17
2018-06-29T03:48:11.671Z,4.37
2018-06-29T03:50:40.867Z,4.90
2018-06-29T03:53:09.520Z,5.40
2018-06-29T03:55:38.131Z,4.43
2018-06-29T03:58:07.070Z,4.93
2018-06-29T04:00:36.113Z,4.47
2018-06-29T04:03:05.166Z,4.47
2018-06-29T04:05:34.125Z,4.13
2018-06-29T04:08:03.157Z,4.83
2018-06-29T04:10:31.849Z,4.40
2018-06-29T04:13:00.845Z,5.07
2018-06-29T04:15:29.496Z,4.67
2018-06-29T04:17:58.256Z,4.93
2018-06-29T04:20:26.812Z,5.77
2018-06-29T04:22:55.950Z,4.43
2018-06-29T04:25:24.884Z,5.33
2018-06-29T04:27:53.495Z,5.10
2018-06-29T04:30:22.490Z,4.90
2018-06-29T04:32:51.324Z,4.37
2018-06-29T04:35:19.844Z,4.50
2018-06-29T04:37:48.664Z,5.10
2018-06-29T04:40:17.693Z,4.73
2018-06-29T04:42:46.654Z,4.77
2018-06-29T04:45:15.286Z,4.97
2018-06-29T04:47:44.308Z,4.93
2018-06-29T04:50:12.885Z,6.00
2018-06-29T04:52:41.601Z,4.60
2018-06-29T04:55:10.317Z,5.80
2018-06-29T04:57:39.059Z,4.27
2018-06-29T05:00:07.999Z,9.07
2018-06-29T05:02:36.705Z,7.33
2018-06-29T05:05:05.344Z,6.07
2018-06-29T05:07:34.759Z,7.27
2018-06-29T05:10:03.794Z,6.00
2018-06-29T05:12:32.512Z,5.40
2018-06-29T05:15:01.250Z,6.80
2018-06-29T05:17:30.553Z,6.53
2018-06-29T05:19:59.915Z,6.10
2018-06-29T05:22:28.533Z,9.87
2018-06-29T05:24:57.644Z,10.30
2018-06-29T05:27:26.395Z,8.63
2018-06-29T05:29:54.954Z,5.33
2018-06-29T05:32:23.669Z,8.50
2018-06-29T05:34:52.367Z,9.17
2018-06-29T05:37:21.566Z,6.50
2018-06-29T05:39:50.321Z,6.40
2018-06-29T05:42:19.171Z,5.83
2018-06-29T05:44:48.577Z,6.57
2018-06-29T05:47:17.361Z,8.33
2018-06-29T05:49:45.961Z,9.30
2018-06-29T05:52:14.673Z,7.53
2018-06-29T05:54:43.599Z,8.13
2018-06-29T05:57:12.211Z,5.70
2018-06-29T05:59:41.210Z,6.37
2018-06-29T06:02:10.254Z,10.60
2018-06-29T06:04:39.377Z,6.17
2018-06-29T06:07:08.383Z,9.83
2018-06-29T06:09:37.746Z,5.60
2018-06-29T06:12:06.702Z,10.87
2018-06-29T06:14:35.639Z,7.97
2018-06-29T06:17:04.886Z,7.07
2018-06-29T06:19:44.907Z,8.93
2018-06-29T06:22:13.175Z,6.47
2018-06-29T06:24:42.078Z,7.47
2018-06-29T06:27:11.119Z,5.83
2018-06-29T06:29:40.427Z,7.27
2018-06-29T06:32:09.127Z,6.17
2018-06-29T06:34:40.312Z,7.53
2018-06-29T06:37:09.335Z,5.83
2018-06-29T06:39:38.061Z,6.30
2018-06-29T06:42:06.703Z,9.70
2018-06-29T06:44:35.536Z,7.23
2018-06-29T06:47:04.303Z,6.70
2018-06-29T06:49:33.039Z,6.17
2018-06-29T06:52:01.714Z,5.97
2018-06-29T06:54:30.806Z,5.33
2018-06-29T06:56:59.616Z,8.73
2018-06-29T06:59:28.476Z,7.23
2018-06-29T07:01:58.498Z,6.13
2018-06-29T07:04:27.100Z,5.20
2018-06-29T07:06:55.875Z,5.07
2018-06-29T07:09:24.509Z,5.07
2018-06-29T07:11:53.455Z,7.40
2018-06-29T07:14:22.161Z,9.77
2018-06-29T07:16:51.472Z,6.77
2018-06-29T07:19:20.677Z,6.07
2018-06-29T07:21:49.265Z,6.27
2018-06-29T07:24:17.870Z,5.43
2018-06-29T07:26:46.787Z,4.73
2018-06-29T07:29:15.255Z,5.27
2018-06-29T07:31:43.938Z,7.53
2018-06-29T07:34:12.996Z,7.00
2018-06-29T07:36:41.680Z,5.53
2018-06-29T07:39:10.864Z,6.73
2018-06-29T07:41:39.667Z,5.60
2018-06-29T07:44:08.348Z,6.23
2018-06-29T07:46:36.976Z,8.70
2018-06-29T07:49:05.227Z,5.17
2018-06-29T07:51:33.484Z,5.57
2018-06-29T07:54:01.730Z,5.53
2018-06-29T07:56:30.477Z,6.77
2018-06-29T07:59:01.044Z,5.27
2018-06-29T08:01:29.390Z,5.03
2018-06-29T08:03:57.746Z,7.27
2018-06-29T08:06:26.854Z,5.60
2018-06-29T08:08:55.729Z,7.13
2018-06-29T08:11:24.346Z,6.50
2018-06-29T08:13:53.309Z,5.00
2018-06-29T08:16:22.031Z,4.77
2018-06-29T08:18:50.254Z,4.43
2018-06-29T08:21:18.573Z,5.97
2018-06-29T08:23:46.847Z,4.20
2018-06-29T08:26:21.788Z,7.23
2018-06-29T08:28:50.190Z,4.93
2018-06-29T08:31:18.482Z,3.67
2018-06-29T08:33:46.796Z,4.40
2018-06-29T08:36:15.436Z,4.47
2018-06-29T08:38:44.056Z,4.33
2018-06-29T08:41:12.282Z,4.43
2018-06-29T08:43:40.840Z,3.53
2018-06-29T08:46:09.576Z,3.03
2018-06-29T08:48:37.820Z,4.83
2018-06-29T08:51:05.991Z,6.13
2018-06-29T08:53:34.109Z,4.40
2018-06-29T08:56:02.368Z,3.60
2018-06-29T08:58:30.547Z,4.23
2018-06-29T09:00:59.082Z,5.13
2018-06-29T09:03:27.684Z,4.70
2018-06-29T09:05:56.013Z,5.23
2018-06-29T09:08:24.793Z,4.13
2018-06-29T09:10:53.081Z,6.50
2018-06-29T09:13:21.397Z,3.90
2018-06-29T09:15:49.719Z,5.47
2018-06-29T09:18:18.143Z,6.37
2018-06-29T09:20:46.786Z,3.87
2018-06-29T09:23:15.094Z,3.67
2018-06-29T09:25:43.339Z,5.00
2018-06-29T09:28:11.559Z,3.17
2018-06-29T09:30:39.785Z,3.87
2018-06-29T09:33:08.291Z,2.60
2018-06-29T09:35:36.540Z,3.63
2018-06-29T09:38:04.947Z,2.93
2018-06-29T09:40:33.615Z,3.83
2018-06-29T09:43:02.190Z,2.40
2018-06-29T09:45:30.516Z,7.17
2018-06-29T09:47:59.171Z,3.63
2018-06-29T09:50:27.755Z,4.70
2018-06-29T09:52:56.389Z,2.70
2018-06-29T09:55:24.941Z,3.70
2018-06-29T09:57:53.255Z,2.93
2018-06-29T10:00:27.715Z,2.80
2018-06-29T10:02:56.648Z,2.67
2018-06-29T10:05:25.638Z,2.17
2018-06-29T10:07:54.104Z,5.53
2018-06-29T10:10:25.616Z,3.03
2018-06-29T10:12:53.942Z,2.03
2018-06-29T10:15:22.243Z,3.90
2018-06-29T10:17:50.767Z,3.23
2018-06-29T10:20:19.244Z,1.97
2018-06-29T10:22:47.444Z,5.83
2018-06-29T10:25:15.735Z,2.60
2018-06-29T10:27:44.224Z,1.90
2018-06-29T10:30:12.777Z,3.13
2018-06-29T10:32:40.957Z,2.87
2018-06-29T10:35:09.347Z,3.43
2018-06-29T10:37:38.000Z,2.53
2018-06-29T10:40:06.228Z,2.70
2018-06-29T10:42:34.782Z,2.13
2018-06-29T10:45:03.315Z,2.03
2018-06-29T10:47:31.619Z,1.90
2018-06-29T10:49:59.872Z,2.07
2018-06-29T10:52:28.167Z,1.70
2018-06-29T10:54:56.463Z,1.90
2018-06-29T10:57:25.031Z,3.13
2018-06-29T10:59:53.334Z,2.20
2018-06-29T11:02:21.449Z,2.57
2018-06-29T11:04:49.703Z,1.90
2018-06-29T11:07:18.036Z,2.37
2018-06-29T11:09:46.326Z,2.13
2018-06-29T11:12:14.664Z,1.70
2018-06-29T11:14:43.235Z,3.00
2018-06-29T11:17:11.514Z,2.97
2018-06-29T11:19:39.706Z,2.43
2018-06-29T11:22:08.697Z,2.60
2018-06-29T11:24:37.293Z,3.57
2018-06-29T11:27:05.996Z,2.83
2018-06-29T11:29:34.207Z,2.60
2018-06-29T11:32:02.652Z,2.00
2018-06-29T11:34:30.901Z,2.10
2018-06-29T11:36:59.227Z,2.20
2018-06-29T11:39:27.765Z,2.10
2018-06-29T11:41:56.024Z,2.27
2018-06-29T11:44:24.240Z,2.85
2018-06-29T11:46:52.439Z,2.00
2018-06-29T11:49:21.060Z,2.45
2018-06-29T11:51:49.603Z,3.92
2018-06-29T11:54:18.230Z,1.65
2018-06-29T11:56:46.966Z,3.05
2018-06-29T11:59:15.132Z,2.00
2018-06-29T12:01:43.620Z,2.87
2018-06-29T12:04:11.893Z,1.80
2018-06-29T12:06:40.182Z,2.08
2018-06-29T12:09:09.814Z,2.87
2018-06-29T12:11:38.085Z,2.12
2018-06-29T12:14:06.291Z,2.02
2018-06-29T12:16:34.737Z,1.72
2018-06-29T12:19:03.405Z,3.17
2018-06-29T12:21:31.953Z,1.70
2018-06-29T12:24:00.701Z,1.85
2018-06-29T12:26:29.335Z,2.58
2018-06-29T12:28:57.636Z,2.83
2018-06-29T12:31:25.922Z,3.60
2018-06-29T12:33:54.328Z,2.00
2018-06-29T12:36:22.931Z,2.50
2018-06-29T12:38:51.468Z,3.55
2018-06-29T12:41:20.340Z,2.52
2018-06-29T12:43:48.554Z,1.95
2018-06-29T12:46:16.952Z,5.53
2018-06-29T12:48:45.294Z,3.12
2018-06-29T12:51:13.943Z,4.78
2018-06-29T12:53:42.207Z,3.20
2018-06-29T12:56:11.024Z,3.98
2018-06-29T12:58:39.398Z,3.10
2018-06-29T13:01:07.739Z,3.30
2018-06-29T13:03:36.912Z,4.17
2018-06-29T13:06:05.111Z,2.17
2018-06-29T13:08:33.924Z,2.25
2018-06-29T13:11:02.622Z,3.40
2018-06-29T13:13:31.296Z,4.92
2018-06-29T13:15:59.913Z,2.30
2018-06-29T13:18:28.166Z,2.45
2018-06-29T13:20:57.298Z,2.33
2018-06-29T13:23:26.297Z,2.05
2018-06-29T13:25:55.252Z,2.35
2018-06-29T13:28:24.346Z,2.33
2018-06-29T13:30:52.988Z,5.33
2018-06-29T13:33:21.599Z,1.80
2018-06-29T13:35:50.350Z,2.72
2018-06-29T13:38:19.005Z,2.40
2018-06-29T13:40:47.724Z,2.35
2018-06-29T13:43:16.436Z,2.83
2018-06-29T13:45:45.697Z,2.40
2018-06-29T13:48:14.745Z,2.20
2018-06-29T13:50:43.676Z,1.90
2018-06-29T13:53:11.967Z,2.12
2018-06-29T13:55:42.429Z,4.25
2018-06-29T13:58:10.710Z,2.08
2018-06-29T14:00:42.400Z,2.83
2018-06-29T14:03:11.269Z,2.10
2018-06-29T14:05:40.029Z,3.05
2018-06-29T14:08:08.770Z,3.22
2018-06-29T14:10:38.387Z,2.47
2018-06-29T14:13:07.554Z,3.40
2018-06-29T14:15:36.375Z,3.83
2018-06-29T14:18:04.583Z,2.80
2018-06-29T14:20:33.510Z,2.67
2018-06-29T14:23:02.278Z,1.90
2018-06-29T14:25:31.048Z,3.47
2018-06-29T14:27:59.319Z,2.00
2018-06-29T14:30:28.206Z,2.95
2018-06-29T14:32:57.088Z,4.47
2018-06-29T14:35:25.712Z,3.15
2018-06-29T14:37:54.433Z,4.62
2018-06-29T14:40:23.251Z,2.80
2018-06-29T14:42:52.352Z,1.82
2018-06-29T14:45:21.046Z,3.08
2018-06-29T14:47:49.533Z,3.58
2018-06-29T14:50:17.988Z,2.00
2018-06-29T14:52:47.510Z,4.65
2018-06-29T14:55:17.070Z,3.37
2018-06-29T14:57:45.793Z,3.00
2018-06-29T15:00:16.299Z,3.83
2018-06-29T15:02:45.015Z,2.22
2018-06-29T15:05:14.462Z,2.83
2018-06-29T15:07:43.550Z,2.58
2018-06-29T15:10:12.469Z,3.33
2018-06-29T15:12:42.136Z,4.25
2018-06-29T15:15:11.617Z,2.45
2018-06-29T15:17:40.431Z,2.87
2018-06-29T15:20:10.719Z,4.72
2018-06-29T15:22:39.641Z,1.65
2018-06-29T15:25:08.720Z,2.40
2018-06-29T15:27:37.765Z,3.72
2018-06-29T15:30:07.663Z,1.60
2018-06-29T15:32:36.502Z,2.52
2018-06-29T15:35:05.809Z,1.85
2018-06-29T15:37:34.843Z,1.82
2018-06-29T15:40:03.572Z,1.42
2018-06-29T15:42:33.109Z,1.75
2018-06-29T15:45:01.996Z,1.67
2018-06-29T15:47:30.989Z,2.77
2018-06-29T15:49:59.952Z,2.62
2018-06-29T15:52:30.032Z,1.75
2018-06-29T15:54:59.070Z,1.67
2018-06-29T15:57:27.676Z,1.52
2018-06-29T15:59:56.716Z,1.42
2018-06-29T16:02:25.914Z,2.37
2018-06-29T16:04:54.895Z,1.87
2018-06-29T16:07:24.375Z,1.57
2018-06-29T16:09:55.073Z,1.50
2018-06-29T16:12:26.918Z,2.45
2018-06-29T16:14:55.097Z,1.40
2018-06-29T16:17:28.627Z,2.67
2018-06-29T16:19:57.672Z,2.25
2018-06-29T16:22:26.169Z,1.47
2018-06-29T16:24:55.223Z,4.05
2018-06-29T16:27:24.202Z,2.02
2018-06-29T16:29:52.986Z,1.67
2018-06-29T16:32:22.004Z,4.20
2018-06-29T16:34:51.304Z,2.00
2018-06-29T16:37:19.583Z,1.55
2018-06-29T16:39:48.448Z,1.47
2018-06-29T16:42:17.260Z,4.53
2018-06-29T16:44:47.311Z,2.60
2018-06-29T16:47:15.805Z,1.55
2018-06-29T16:49:48.312Z,1.62
2018-06-29T16:52:16.732Z,4.97
2018-06-29T16:54:46.483Z,5.78
2018-06-29T16:57:15.434Z,2.75
2018-06-29T16:59:44.154Z,4.60
2018-06-29T17:02:12.646Z,2.80
2018-06-29T17:04:41.576Z,2.12
2018-06-29T17:07:10.698Z,2.47
2018-06-29T17:09:39.696Z,2.98
2018-06-29T17:12:09.067Z,2.05
2018-06-29T17:14:38.479Z,3.42
2018-06-29T17:17:06.673Z,2.22
2018-06-29T17:19:35.295Z,1.98
2018-06-29T17:22:03.845Z,1.65
2018-06-29T17:24:32.503Z,2.35
2018-06-29T17:27:01.525Z,1.87
2018-06-29T17:29:30.605Z,1.52
2018-06-29T17:31:59.206Z,2.80
2018-06-29T17:34:28.466Z,2.25
2018-06-29T17:36:56.876Z,4.03
2018-06-29T17:39:26.682Z,1.92
2018-06-29T17:41:55.348Z,3.40
2018-06-29T17:44:24.090Z,6.05
2018-06-29T17:46:52.841Z,2.90
2018-06-29T17:49:22.243Z,2.22
2018-06-29T17:51:50.859Z,4.25
2018-06-29T17:54:20.030Z,2.67
2018-06-29T17:56:48.512Z,3.30
2018-06-29T17:59:16.840Z,5.03
2018-06-29T18:01:45.090Z,4.55
2018-06-29T18:04:13.316Z,2.75
2018-06-29T18:06:42.170Z,2.98
2018-06-29T18:09:11.544Z,6.28
2018-06-29T18:11:39.779Z,3.60
2018-06-29T18:14:08.065Z,3.55
2018-06-29T18:16:36.410Z,3.02
2018-06-29T18:19:04.824Z,3.17
2018-06-29T18:21:33.121Z,5.70
2018-06-29T18:24:01.872Z,4.28
2018-06-29T18:26:30.184Z,3.62
2018-06-29T18:28:58.452Z,3.58
2018-06-29T18:31:26.746Z,6.15
2018-06-29T18:33:55.031Z,3.30
2018-06-29T18:36:23.704Z,5.40
2018-06-29T18:38:52.005Z,4.40
2018-06-29T18:41:20.607Z,5.47
2018-06-29T18:43:49.155Z,5.10
2018-06-29T18:46:17.924Z,4.63
2018-06-29T18:48:46.213Z,4.00
2018-06-29T18:51:14.738Z,4.83
2018-06-29T18:53:42.997Z,4.63
2018-06-29T18:56:11.631Z,6.07
2018-06-29T18:58:40.036Z,6.03
2018-06-29T19:01:08.291Z,6.20
2018-06-29T19:03:36.636Z,7.60
2018-06-29T19:06:05.390Z,6.83
2018-06-29T19:08:34.032Z,5.97
2018-06-29T19:11:02.319Z,6.47
2018-06-29T19:13:30.998Z,4.17
2018-06-29T19:16:01.440Z,5.10
2018-06-29T19:18:30.316Z,8.90
2018-06-29T19:20:58.781Z,6.90
2018-06-29T19:23:27.092Z,4.43
2018-06-29T19:25:55.320Z,4.17
2018-06-29T19:28:23.656Z,4.63
2018-06-29T19:30:52.252Z,6.80
2018-06-29T19:33:20.580Z,7.43
2018-06-29T19:35:48.928Z,6.40
2018-06-29T19:38:17.543Z,6.07
2018-06-29T19:40:46.185Z,6.47
2018-06-29T19:43:14.424Z,7.37
2018-06-29T19:45:43.585Z,8.37
2018-06-29T19:48:11.912Z,6.50
2018-06-29T19:50:40.519Z,4.90
2018-06-29T19:53:09.536Z,4.77
2018-06-29T19:55:37.727Z,6.33
2018-06-29T19:58:06.114Z,6.73
2018-06-29T20:00:34.458Z,5.03
2018-06-29T20:03:02.737Z,7.90
2018-06-29T20:05:31.058Z,5.63
2018-06-29T20:07:59.618Z,7.07
2018-06-29T20:10:27.912Z,6.27
2018-06-29T20:12:56.226Z,10.50
2018-06-29T20:15:25.523Z,7.63
2018-06-29T20:17:54.067Z,6.30
2018-06-29T20:20:22.758Z,9.37
2018-06-29T20:22:51.753Z,10.10
2018-06-29T20:25:20.567Z,7.40
2018-06-29T20:27:49.552Z,8.77
2018-06-29T20:30:18.566Z,6.23
2018-06-29T20:32:47.152Z,8.47
2018-06-29T20:35:15.730Z,7.67
2018-06-29T20:37:44.042Z,7.60
2018-06-29T20:40:12.355Z,10.50
2018-06-29T20:42:41.811Z,9.90
2018-06-29T20:45:11.056Z,10.57
2018-06-29T20:47:40.093Z,7.90
2018-06-29T20:50:08.798Z,10.70
2018-06-29T20:52:38.294Z,8.03
2018-06-29T20:55:07.085Z,11.17
2018-06-29T20:57:35.836Z,8.77
2018-06-29T21:00:05.824Z,9.73
2018-06-29T21:02:34.877Z,10.43
2018-06-29T21:05:03.736Z,7.80
2018-06-29T21:07:33.067Z,6.97
2018-06-29T21:10:02.043Z,8.20
2018-06-29T21:12:31.064Z,10.07
2018-06-29T21:14:59.703Z,8.10
2018-06-29T21:17:28.899Z,11.00
2018-06-29T21:19:57.569Z,7.67
2018-06-29T21:22:26.482Z,10.27
2018-06-29T21:24:55.682Z,11.53
2018-06-29T21:27:24.772Z,9.73
2018-06-29T21:29:53.914Z,9.47
2018-06-29T21:32:22.846Z,12.63
2018-06-29T21:34:52.328Z,9.33
2018-06-29T21:37:21.611Z,8.90
2018-06-29T21:39:57.071Z,10.23
2018-06-29T21:42:26.257Z,11.17
2018-06-29T21:44:55.136Z,10.50
2018-06-29T21:47:24.216Z,10.23
2018-06-29T21:49:53.437Z,11.70
2018-06-29T21:52:22.235Z,10.57
2018-06-29T21:54:51.739Z,9.77
2018-06-29T21:57:20.806Z,9.17
2018-06-29T21:59:50.047Z,12.43
2018-06-29T22:02:19.153Z,9.60
2018-06-29T22:04:47.963Z,10.97
2018-06-29T22:07:17.502Z,13.53
2018-06-29T22:09:46.383Z,9.20
2018-06-29T22:12:15.462Z,9.53
2018-06-29T22:14:44.787Z,12.90
2018-06-29T22:17:13.544Z,13.07
2018-06-29T22:19:43.608Z,13.10
2018-06-29T22:22:12.273Z,10.73
2018-06-29T22:24:41.073Z,10.00
2018-06-29T22:27:10.258Z,13.07
2018-06-29T22:29:38.931Z,10.27
2018-06-29T22:32:07.796Z,13.40
2018-06-29T22:34:36.106Z,12.73
2018-06-29T22:37:04.910Z,11.07
2018-06-29T22:39:33.933Z,11.40
2018-06-29T22:42:02.246Z,11.03
2018-06-29T22:44:31.401Z,11.87
2018-06-29T22:47:00.121Z,10.87
2018-06-29T22:49:28.857Z,12.97
2018-06-29T22:51:57.892Z,13.60
2018-06-29T22:54:26.551Z,11.17
2018-06-29T22:56:55.711Z,10.43
2018-06-29T22:59:24.723Z,10.87
2018-06-29T23:01:53.365Z,13.30
2018-06-29T23:04:22.001Z,12.87
2018-06-29T23:06:51.207Z,10.40
2018-06-29T23:09:19.892Z,10.63
2018-06-29T23:11:48.624Z,15.27
2018-06-29T23:14:17.729Z,11.13
2018-06-29T23:16:47.625Z,12.60
2018-06-29T23:19:16.758Z,12.27
2018-06-29T23:21:45.987Z,14.83
2018-06-29T23:24:14.989Z,11.07
2018-06-29T23:26:43.792Z,13.33
2018-06-29T23:29:12.748Z,12.33
2018-06-29T23:31:41.504Z,14.30
2018-06-29T23:34:10.605Z,14.57
2018-06-29T23:36:39.591Z,11.70
2018-06-29T23:39:08.868Z,12.03
2018-06-29T23:41:37.336Z,12.20
2018-06-29T23:44:05.712Z,10.87
2018-06-29T23:46:34.249Z,13.50
2018-06-29T23:49:02.811Z,13.40
2018-06-29T23:51:31.520Z,14.63
2018-06-29T23:54:00.124Z,13.83
2018-06-29T23:56:28.828Z,13.53
2018-06-29T23:58:57.584Z,13.27
